createdAt,value
2023-02-24T00:02:01.520Z,7.40
2023-02-24T00:04:35.389Z,7.57
2023-02-24T00:07:03.084Z,8.88
2023-02-24T00:09:31.653Z,7.78
2023-02-24T00:12:03.008Z,7.95
2023-02-24T00:14:34.715Z,7.82
2023-02-24T00:17:03.158Z,7.53
2023-02-24T00:19:32.878Z,7.07
2023-02-24T00:22:02.375Z,7.57
2023-02-24T00:24:30.767Z,6.82
2023-02-24T00:27:00.654Z,6.97
2023-02-24T00:29:29.996Z,6.43
2023-02-24T00:32:03.963Z,6.15
2023-02-24T00:34:35.467Z,6.65
2023-02-24T00:37:03.535Z,7.45
2023-02-24T00:39:34.194Z,8.45
2023-02-24T00:42:05.169Z,7.63
2023-02-24T00:44:35.234Z,7.03
2023-02-24T00:47:05.027Z,7.57
2023-02-24T00:49:42.780Z,7.95
2023-02-24T00:52:19.727Z,7.13
2023-02-24T00:54:49.733Z,7.00
2023-02-24T00:57:20.030Z,6.70
2023-02-24T00:59:47.949Z,7.45
2023-02-24T01:02:15.956Z,7.10
2023-02-24T01:04:45.623Z,7.18
2023-02-24T01:07:14.869Z,7.13
2023-02-24T01:09:44.505Z,7.43
2023-02-24T01:12:32.257Z,7.28
2023-02-24T01:15:00.032Z,7.55
2023-02-24T01:17:27.719Z,6.82
2023-02-24T01:20:00.433Z,7.15
2023-02-24T01:24:55.916Z,6.45
2023-02-24T01:27:23.593Z,7.65
2023-02-24T01:29:51.472Z,7.10
2023-02-24T01:32:21.242Z,6.78
2023-02-24T01:34:52.319Z,7.15
2023-02-24T01:37:21.293Z,6.45
2023-02-24T01:39:50.302Z,7.55
2023-02-24T01:42:21.453Z,7.00
2023-02-24T01:44:52.191Z,6.75
2023-02-24T01:47:21.528Z,7.03
2023-02-24T01:49:52.971Z,7.13
2023-02-24T01:52:26.758Z,6.57
2023-02-24T01:55:10.776Z,6.82
2023-02-24T01:57:39.180Z,7.95
2023-02-24T02:00:20.755Z,5.95
2023-02-24T02:02:53.297Z,8.80
2023-02-24T02:05:21.314Z,6.05
2023-02-24T02:07:50.324Z,7.22
2023-02-24T02:10:18.678Z,6.40
2023-02-24T02:12:47.026Z,7.72
2023-02-24T02:15:20.760Z,7.55
2023-02-24T02:17:48.481Z,7.47
2023-02-24T02:20:56.829Z,6.63
2023-02-24T02:23:28.776Z,7.30
2023-02-24T02:25:59.127Z,8.38
2023-02-24T02:28:50.759Z,9.43
2023-02-24T02:31:38.112Z,7.25
2023-02-24T02:34:09.891Z,7.95
2023-02-24T02:37:01.669Z,9.35
2023-02-24T02:39:44.711Z,7.65
2023-02-24T02:42:30.556Z,6.57
2023-02-24T02:45:05.430Z,6.85
2023-02-24T02:47:41.409Z,7.95
2023-02-24T02:50:30.245Z,7.50
2023-02-24T02:53:14.589Z,7.35
2023-02-24T02:56:01.439Z,7.25
2023-02-24T02:58:35.284Z,14.82
2023-02-24T03:01:07.380Z,11.43
2023-02-24T03:03:42.861Z,8.98
2023-02-24T03:06:16.490Z,8.77
2023-02-24T03:08:53.924Z,10.07
2023-02-24T03:11:22.877Z,9.45
2023-02-24T03:13:56.341Z,8.00
2023-02-24T03:16:27.151Z,7.05
2023-02-24T03:19:02.347Z,6.95
2023-02-24T03:21:40.810Z,7.30
2023-02-24T03:24:09.876Z,7.57
2023-02-24T03:26:51.238Z,7.80
2023-02-24T03:29:48.883Z,7.60
2023-02-24T03:32:36.770Z,7.22
2023-02-24T03:35:20.641Z,6.55
2023-02-24T03:37:50.149Z,8.50
2023-02-24T03:40:20.985Z,7.90
2023-02-24T03:42:52.396Z,8.60
2023-02-24T03:45:23.223Z,6.63
2023-02-24T03:47:54.230Z,8.32
2023-02-24T03:50:22.648Z,10.18
2023-02-24T03:53:18.754Z,8.52
2023-02-24T03:56:22.451Z,8.88
2023-02-24T03:59:03.095Z,8.32
2023-02-24T04:01:42.133Z,8.10
2023-02-24T04:04:19.041Z,11.45
2023-02-24T04:07:06.437Z,11.95
2023-02-24T04:09:52.104Z,10.10
2023-02-24T04:12:28.216Z,10.48
2023-02-24T04:15:18.363Z,10.38
2023-02-24T04:17:53.718Z,10.70
2023-02-24T04:20:28.128Z,11.65
2023-02-24T04:23:10.779Z,8.90
2023-02-24T04:25:40.408Z,8.85
2023-02-24T04:28:10.043Z,8.73
2023-02-24T04:30:44.414Z,7.60
2023-02-24T04:33:13.738Z,7.38
2023-02-24T04:35:45.321Z,8.27
2023-02-24T04:38:13.188Z,6.85
2023-02-24T04:40:41.024Z,8.15
2023-02-24T04:43:09.245Z,10.38
2023-02-24T04:45:40.192Z,10.30
2023-02-24T04:48:13.151Z,9.02
2023-02-24T04:53:15.180Z,9.02
2023-02-24T04:55:48.913Z,9.65
2023-02-24T04:58:22.041Z,7.70
2023-02-24T05:00:56.045Z,7.25
2023-02-24T05:03:28.395Z,8.68
2023-02-24T05:06:00.228Z,8.02
2023-02-24T05:08:29.932Z,9.80
2023-02-24T05:10:58.906Z,13.75
2023-02-24T05:13:28.530Z,11.93
2023-02-24T05:15:57.802Z,12.18
2023-02-24T05:18:26.105Z,11.43
2023-02-24T05:21:14.107Z,9.70
2023-02-24T05:23:45.206Z,10.15
2023-02-24T05:26:17.264Z,12.15
2023-02-24T05:28:49.465Z,11.23
2023-02-24T05:31:20.582Z,9.07
2023-02-24T05:33:54.740Z,10.27
2023-02-24T05:36:23.841Z,8.00
2023-02-24T05:39:06.313Z,9.45
2023-02-24T05:41:39.648Z,10.20
2023-02-24T05:44:11.365Z,9.30
2023-02-24T05:46:41.361Z,10.43
2023-02-24T05:49:14.873Z,9.55
2023-02-24T05:51:55.007Z,10.05
2023-02-24T05:54:31.539Z,11.13
2023-02-24T05:57:15.458Z,9.70
2023-02-24T05:59:44.749Z,8.57
2023-02-24T06:02:15.092Z,9.15
2023-02-24T06:04:51.623Z,7.60
2023-02-24T06:07:25.374Z,7.63
2023-02-24T06:09:57.199Z,9.40
2023-02-24T06:12:33.960Z,9.93
2023-02-24T06:15:07.646Z,10.32
2023-02-24T06:17:35.525Z,8.55
2023-02-24T06:20:13.636Z,8.85
2023-02-24T06:22:44.784Z,7.50
2023-02-24T06:25:12.564Z,8.30
2023-02-24T06:27:40.413Z,7.13
2023-02-24T06:30:10.479Z,8.38
2023-02-24T06:32:38.619Z,7.88
2023-02-24T06:35:06.531Z,8.10
2023-02-24T06:37:35.977Z,7.70
2023-02-24T06:40:09.447Z,7.60
2023-02-24T06:42:39.307Z,7.57
2023-02-24T06:45:08.497Z,7.55
2023-02-24T06:47:36.289Z,8.70
2023-02-24T06:50:06.990Z,8.32
2023-02-24T06:52:34.619Z,7.88
2023-02-24T06:55:04.837Z,8.73
2023-02-24T06:57:34.776Z,9.55
2023-02-24T07:00:17.092Z,12.13
2023-02-24T07:02:45.866Z,13.63
2023-02-24T07:05:14.837Z,11.95
2023-02-24T07:07:46.052Z,12.85
2023-02-24T07:10:13.852Z,11.38
2023-02-24T07:12:41.627Z,12.10
2023-02-24T07:15:09.810Z,13.20
2023-02-24T07:17:37.625Z,14.60
2023-02-24T07:20:11.702Z,16.50
2023-02-24T07:22:39.435Z,12.50
2023-02-24T07:25:07.373Z,14.20
2023-02-24T07:27:36.828Z,14.00
2023-02-24T07:30:06.679Z,11.90
2023-02-24T07:32:34.365Z,11.50
2023-02-24T07:35:01.963Z,10.77
2023-02-24T07:37:31.900Z,11.95
2023-02-24T07:39:59.508Z,17.38
2023-02-24T07:42:30.633Z,29.83
2023-02-24T07:44:58.292Z,22.95
2023-02-24T07:47:26.626Z,13.15
2023-02-24T07:49:55.572Z,13.02
2023-02-24T07:52:23.322Z,11.93
2023-02-24T07:54:51.123Z,9.30
2023-02-24T07:57:19.070Z,8.85
2023-02-24T07:59:47.759Z,10.10
2023-02-24T08:02:16.826Z,9.68
2023-02-24T08:04:51.558Z,10.32
2023-02-24T08:07:25.179Z,10.40
2023-02-24T08:10:12.022Z,9.70
2023-02-24T08:12:44.396Z,8.90
2023-02-24T08:15:23.710Z,9.52
2023-02-24T08:17:53.745Z,8.90
2023-02-24T08:20:21.970Z,12.75
2023-02-24T08:22:54.142Z,13.15
2023-02-24T08:25:38.469Z,14.35
2023-02-24T08:28:11.987Z,11.50
2023-02-24T08:30:47.770Z,13.05
2023-02-24T08:33:21.396Z,13.35
2023-02-24T08:36:01.320Z,11.60
2023-02-24T08:38:40.104Z,13.80
2023-02-24T08:41:21.110Z,15.02
2023-02-24T08:43:49.837Z,13.50
2023-02-24T08:46:26.868Z,10.50
2023-02-24T08:49:00.693Z,12.63
2023-02-24T08:51:34.665Z,16.92
2023-02-24T08:54:11.165Z,11.73
2023-02-24T08:56:43.844Z,13.90
2023-02-24T08:59:29.351Z,13.13
2023-02-24T09:02:17.149Z,14.88
2023-02-24T09:04:47.095Z,17.77
2023-02-24T09:07:24.267Z,13.68
2023-02-24T09:09:56.395Z,11.95
2023-02-24T09:12:28.865Z,13.80
2023-02-24T09:17:42.966Z,11.05
2023-02-24T09:20:27.196Z,12.07
2023-02-24T09:23:09.088Z,11.52
2023-02-24T09:25:44.054Z,11.77
2023-02-24T09:28:17.764Z,12.43
2023-02-24T09:30:53.504Z,11.85
2023-02-24T09:33:27.352Z,11.68
2023-02-24T09:36:10.728Z,12.88
2023-02-24T09:39:06.375Z,11.25
2023-02-24T09:42:07.677Z,12.27
2023-02-24T09:44:45.179Z,11.90
2023-02-24T09:47:45.965Z,13.40
2023-02-24T09:50:38.288Z,10.70
2023-02-24T09:53:17.468Z,11.10
2023-02-24T09:56:03.977Z,11.82
2023-02-24T09:58:44.156Z,13.02
2023-02-24T10:01:43.193Z,11.60
2023-02-24T10:04:52.285Z,12.65
2023-02-24T10:07:38.590Z,11.88
2023-02-24T10:10:20.095Z,11.57
2023-02-24T10:13:30.491Z,12.68
2023-02-24T10:16:07.116Z,11.82
2023-02-24T10:19:01.419Z,12.45
2023-02-24T10:22:00.346Z,11.70
2023-02-24T10:24:47.663Z,12.45
2023-02-24T10:27:27.190Z,12.23
2023-02-24T10:30:05.471Z,12.18
2023-02-24T10:32:54.690Z,11.18
2023-02-24T10:35:26.187Z,12.35
2023-02-24T10:37:59.040Z,11.40
2023-02-24T10:40:43.994Z,11.55
2023-02-24T10:43:17.968Z,13.20
2023-02-24T10:45:47.706Z,12.65
2023-02-24T10:48:40.723Z,12.57
2023-02-24T10:51:32.063Z,11.93
2023-02-24T10:54:42.553Z,11.55
2023-02-24T10:57:18.445Z,10.52
2023-02-24T11:00:10.604Z,13.52
2023-02-24T11:03:08.310Z,18.33
2023-02-24T11:05:56.879Z,12.73
2023-02-24T11:08:37.051Z,11.90
2023-02-24T11:11:20.716Z,11.65
2023-02-24T11:14:18.545Z,11.57
2023-02-24T11:17:09.412Z,11.73
2023-02-24T11:19:56.157Z,12.38
2023-02-24T11:22:31.665Z,13.98
2023-02-24T11:25:07.206Z,13.70
2023-02-24T11:27:35.407Z,13.43
2023-02-24T11:30:26.250Z,12.65
2023-02-24T11:32:54.021Z,12.68
2023-02-24T11:35:48.227Z,11.75
2023-02-24T11:38:28.897Z,13.38
2023-02-24T11:41:22.176Z,12.55
2023-02-24T11:44:01.161Z,12.35
2023-02-24T11:46:42.291Z,11.98
2023-02-24T11:49:40.188Z,12.63
2023-02-24T11:52:21.007Z,13.85
2023-02-24T11:54:53.664Z,13.07
2023-02-24T12:00:26.881Z,11.10
2023-02-24T12:03:13.488Z,12.65
2023-02-24T12:05:45.055Z,13.57
2023-02-24T12:08:31.576Z,15.98
2023-02-24T12:11:05.842Z,13.23
2023-02-24T12:13:48.806Z,13.65
2023-02-24T12:16:40.860Z,14.63
2023-02-24T12:19:18.667Z,16.65
2023-02-24T12:21:59.759Z,13.57
2023-02-24T12:24:27.699Z,13.35
2023-02-24T12:27:02.790Z,15.15
2023-02-24T12:29:52.507Z,14.05
2023-02-24T12:32:43.158Z,12.50
2023-02-24T12:35:25.936Z,13.25
2023-02-24T12:38:20.929Z,12.18
2023-02-24T12:41:10.506Z,12.55
2023-02-24T12:43:38.078Z,13.48
2023-02-24T12:49:31.673Z,12.38
2023-02-24T12:52:07.631Z,14.23
2023-02-24T12:54:58.411Z,14.38
2023-02-24T12:57:41.498Z,14.10
2023-02-24T13:00:22.895Z,15.02
2023-02-24T13:03:25.482Z,13.30
2023-02-24T13:06:17.078Z,13.52
2023-02-24T13:09:27.867Z,14.32
2023-02-24T13:11:58.972Z,14.95
2023-02-24T13:14:32.016Z,14.57
2023-02-24T13:17:27.812Z,12.50
2023-02-24T13:19:56.326Z,12.73
2023-02-24T13:22:30.079Z,13.35
2023-02-24T13:25:21.748Z,12.93
2023-02-24T13:28:21.537Z,13.02
2023-02-24T13:31:02.796Z,14.45
2023-02-24T13:36:21.799Z,13.40
2023-02-24T13:39:07.871Z,13.68
2023-02-24T13:41:40.829Z,13.15
2023-02-24T13:44:20.972Z,15.10
2023-02-24T13:47:18.604Z,14.88
2023-02-24T13:50:07.310Z,14.63
2023-02-24T13:52:53.451Z,15.70
2023-02-24T13:55:44.400Z,15.05
2023-02-24T13:58:32.271Z,13.90
2023-02-24T14:01:06.301Z,13.15
2023-02-24T14:03:34.576Z,13.32
2023-02-24T14:06:03.455Z,14.80
2023-02-24T14:08:54.559Z,13.55
2023-02-24T14:11:27.101Z,13.43
2023-02-24T14:16:44.348Z,15.85
2023-02-24T14:19:16.377Z,14.57
2023-02-24T14:21:50.846Z,15.93
2023-02-24T14:24:19.332Z,19.25
2023-02-24T14:26:55.527Z,17.48
2023-02-24T14:29:27.204Z,14.07
2023-02-24T14:31:56.453Z,14.10
2023-02-24T14:34:26.439Z,22.35
2023-02-24T14:36:59.160Z,30.88
2023-02-24T14:42:08.881Z,20.27
2023-02-24T14:45:01.442Z,21.00
2023-02-24T14:47:33.497Z,30.20
2023-02-24T14:50:04.050Z,31.10
2023-02-24T14:52:32.284Z,18.33
2023-02-24T14:55:28.786Z,18.38
2023-02-24T14:58:03.669Z,17.05
2023-02-24T15:00:43.234Z,17.92
2023-02-24T15:03:19.532Z,20.00
2023-02-24T15:05:51.260Z,21.88
2023-02-24T15:08:44.087Z,19.52
2023-02-24T15:11:23.149Z,15.15
2023-02-24T15:13:57.483Z,16.98
2023-02-24T15:16:40.965Z,18.33
2023-02-24T15:19:32.766Z,20.10
2023-02-24T15:22:00.568Z,19.00
2023-02-24T15:24:34.317Z,18.98
2023-02-24T15:27:20.315Z,17.85
2023-02-24T15:30:24.999Z,18.92
2023-02-24T15:33:04.884Z,20.27
2023-02-24T15:35:34.814Z,23.40
2023-02-24T15:38:03.132Z,19.67
2023-02-24T15:40:31.840Z,17.27
2023-02-24T15:43:10.764Z,23.40
2023-02-24T15:45:40.091Z,25.58
2023-02-24T15:48:23.713Z,19.92
2023-02-24T15:50:54.824Z,17.77
2023-02-24T15:53:22.966Z,16.75
2023-02-24T15:55:51.359Z,16.35
2023-02-24T15:58:22.519Z,18.92
2023-02-24T16:00:52.763Z,20.80
2023-02-24T16:03:20.991Z,21.13
2023-02-24T16:05:49.212Z,20.20
2023-02-24T16:08:19.716Z,29.85
2023-02-24T16:10:50.463Z,23.77
2023-02-24T16:13:24.387Z,24.40
2023-02-24T16:15:52.323Z,24.48
2023-02-24T16:18:23.168Z,22.20
2023-02-24T16:20:54.818Z,21.65
2023-02-24T16:23:24.643Z,20.83
2023-02-24T16:25:57.150Z,21.33
2023-02-24T16:28:27.010Z,18.25
2023-02-24T16:31:14.149Z,18.77
2023-02-24T16:33:54.045Z,19.73
2023-02-24T16:36:26.316Z,21.05
2023-02-24T16:38:54.770Z,29.60
2023-02-24T16:41:23.495Z,36.35
2023-02-24T16:43:51.634Z,37.78
2023-02-24T16:46:23.191Z,44.45
2023-02-24T16:48:54.048Z,41.75
2023-02-24T16:51:23.276Z,41.53
2023-02-24T16:53:51.121Z,48.03
2023-02-24T16:56:19.508Z,52.15
2023-02-24T16:58:48.762Z,46.45
2023-02-24T17:01:21.800Z,51.95
2023-02-24T17:03:52.357Z,40.47
2023-02-24T17:06:22.414Z,38.53
2023-02-24T17:08:51.815Z,58.42
2023-02-24T17:11:30.278Z,70.38
2023-02-24T17:13:58.959Z,43.08
2023-02-24T17:16:27.414Z,31.45
2023-02-24T17:18:55.460Z,27.63
2023-02-24T17:21:23.381Z,23.05
2023-02-24T17:23:53.170Z,23.30
2023-02-24T17:26:21.878Z,23.83
2023-02-24T17:28:49.898Z,26.67
2023-02-24T17:31:18.868Z,28.17
2023-02-24T17:33:46.990Z,30.90
2023-02-24T17:36:14.931Z,25.00
2023-02-24T17:38:42.758Z,22.80
2023-02-24T17:41:10.952Z,21.58
2023-02-24T17:43:39.143Z,22.92
2023-02-24T17:46:08.365Z,26.77
2023-02-24T17:48:36.192Z,28.83
2023-02-24T17:51:04.556Z,32.03
2023-02-24T17:53:32.483Z,28.02
2023-02-24T17:56:07.803Z,28.52
2023-02-24T17:58:36.960Z,31.73
2023-02-24T18:01:06.703Z,32.88
2023-02-24T18:03:37.433Z,34.03
2023-02-24T18:06:09.835Z,38.35
2023-02-24T18:08:39.761Z,40.30
2023-02-24T18:11:11.372Z,48.42
2023-02-24T18:13:39.705Z,45.80
2023-02-24T18:16:13.613Z,41.00
2023-02-24T18:18:42.398Z,39.83
2023-02-24T18:21:10.685Z,37.35
2023-02-24T18:23:40.991Z,37.50
2023-02-24T18:26:12.528Z,34.47
2023-02-24T18:28:42.181Z,34.15
2023-02-24T18:31:16.316Z,27.33
2023-02-24T18:33:46.198Z,21.73
2023-02-24T18:36:16.205Z,20.33
2023-02-24T18:38:46.221Z,18.35
2023-02-24T18:41:19.070Z,19.33
2023-02-24T18:43:55.108Z,19.08
2023-02-24T18:46:24.852Z,23.92
2023-02-24T18:48:53.809Z,21.67
2023-02-24T18:51:26.375Z,29.23
2023-02-24T18:53:57.585Z,29.38
2023-02-24T18:56:28.375Z,34.83
2023-02-24T18:58:59.805Z,37.33
2023-02-24T19:01:36.914Z,35.05
2023-02-24T19:04:07.695Z,37.95
2023-02-24T19:06:37.131Z,58.33
2023-02-24T19:09:10.214Z,63.72
2023-02-24T19:11:41.355Z,57.97
2023-02-24T19:14:12.067Z,56.85
2023-02-24T19:16:41.429Z,50.45
2023-02-24T19:19:14.093Z,51.50
2023-02-24T19:21:45.658Z,51.92
2023-02-24T19:24:14.898Z,48.58
2023-02-24T19:26:46.457Z,47.08
2023-02-24T19:29:16.122Z,46.85
2023-02-24T19:31:46.638Z,46.45
2023-02-24T19:34:15.725Z,46.90
2023-02-24T19:36:44.218Z,46.92
2023-02-24T19:39:15.328Z,47.70
2023-02-24T19:41:44.934Z,45.40
2023-02-24T19:44:13.543Z,40.20
2023-02-24T19:46:44.046Z,25.98
2023-02-24T19:49:14.159Z,15.52
2023-02-24T19:51:46.645Z,14.43
2023-02-24T19:54:17.543Z,12.57
2023-02-24T19:56:46.376Z,13.30
2023-02-24T19:59:15.690Z,37.67
2023-02-24T20:01:45.671Z,52.90
2023-02-24T20:04:14.492Z,49.28
2023-02-24T20:06:46.057Z,40.50
2023-02-24T20:09:22.243Z,37.50
2023-02-24T20:11:54.909Z,29.50
2023-02-24T20:14:23.415Z,29.20
2023-02-24T20:16:51.750Z,23.23
2023-02-24T20:19:20.180Z,28.58
2023-02-24T20:21:51.548Z,29.50
2023-02-24T20:24:21.801Z,22.17
2023-02-24T20:26:51.704Z,22.50
2023-02-24T20:29:25.585Z,20.83
2023-02-24T20:31:54.153Z,19.48
2023-02-24T20:34:23.358Z,26.52
2023-02-24T20:36:52.254Z,25.90
2023-02-24T20:39:25.964Z,21.58
2023-02-24T20:41:55.723Z,22.98
2023-02-24T20:44:26.362Z,24.90
2023-02-24T20:46:55.953Z,25.60
2023-02-24T20:49:25.230Z,36.63
2023-02-24T20:51:54.295Z,39.58
2023-02-24T20:54:24.572Z,23.73
2023-02-24T20:56:53.564Z,14.82
2023-02-24T20:59:25.846Z,10.43
2023-02-24T21:01:54.786Z,10.07
2023-02-24T21:04:23.102Z,8.38
2023-02-24T21:06:52.403Z,10.30
2023-02-24T21:09:20.928Z,10.32
2023-02-24T21:11:49.591Z,12.02
2023-02-24T21:14:20.353Z,10.55
2023-02-24T21:16:50.092Z,10.85
2023-02-24T21:19:20.917Z,12.30
2023-02-24T21:21:49.060Z,11.15
2023-02-24T21:24:18.152Z,12.77
2023-02-24T21:26:49.045Z,12.02
2023-02-24T21:29:17.332Z,11.60
2023-02-24T21:31:45.604Z,10.82
2023-02-24T21:34:18.798Z,11.60
2023-02-24T21:36:46.681Z,11.85
2023-02-24T21:39:14.846Z,12.60
2023-02-24T21:41:43.106Z,15.05
2023-02-24T21:44:15.217Z,14.73
2023-02-24T21:46:43.377Z,13.35
2023-02-24T21:49:14.707Z,14.18
2023-02-24T21:51:42.517Z,14.02
2023-02-24T21:54:12.748Z,14.75
2023-02-24T21:56:41.295Z,13.70
2023-02-24T21:59:11.603Z,14.60
2023-02-24T22:01:44.381Z,11.10
2023-02-24T22:06:42.868Z,11.32
2023-02-24T22:09:12.213Z,9.70
2023-02-24T22:11:41.347Z,10.95
2023-02-24T22:14:11.537Z,9.70
2023-02-24T22:16:39.909Z,9.88
2023-02-24T22:19:07.826Z,15.93
2023-02-24T22:21:35.882Z,21.83
2023-02-24T22:24:04.263Z,22.23
2023-02-24T22:26:32.317Z,20.15
2023-02-24T22:29:01.379Z,21.13
2023-02-24T22:31:31.547Z,19.65
2023-02-24T22:33:59.959Z,19.33
2023-02-24T22:36:30.943Z,19.70
2023-02-24T22:39:00.409Z,19.40
2023-02-24T22:41:33.108Z,20.65
2023-02-24T22:46:35.141Z,27.92
2023-02-24T22:49:03.105Z,19.80
2023-02-24T22:51:31.622Z,23.73
2023-02-24T22:53:59.324Z,30.80
2023-02-24T22:56:32.439Z,64.25
2023-02-24T22:59:00.874Z,54.35
2023-02-24T23:01:31.918Z,50.58
2023-02-24T23:04:05.436Z,43.97
2023-02-24T23:06:34.121Z,32.53
2023-02-24T23:09:02.891Z,29.70
2023-02-24T23:11:32.839Z,28.10
2023-02-24T23:14:03.743Z,24.75
2023-02-24T23:16:34.054Z,20.15
2023-02-24T23:19:04.965Z,14.60
2023-02-24T23:21:39.406Z,15.20
2023-02-24T23:24:14.331Z,17.83
2023-02-24T23:26:47.985Z,19.45
2023-02-24T23:29:18.074Z,24.42
2023-02-24T23:31:46.350Z,19.98
2023-02-24T23:34:15.341Z,24.67
2023-02-24T23:36:45.499Z,17.27
2023-02-24T23:39:15.787Z,16.95
2023-02-24T23:41:44.886Z,18.45
2023-02-24T23:44:12.764Z,16.75
2023-02-24T23:46:41.842Z,17.15
2023-02-24T23:49:09.797Z,15.32
2023-02-24T23:51:48.051Z,15.50
2023-02-24T23:54:18.077Z,14.77
2023-02-24T23:56:46.887Z,14.70
2023-02-24T23:59:15.058Z,14.07
